createdAt,value
2022-10-06T00:00:54.864Z,6.17
2022-10-06T00:03:23.509Z,6.17
2022-10-06T00:05:51.103Z,6.15
2022-10-06T00:08:18.705Z,6.17
2022-10-06T00:10:45.664Z,6.14
2022-10-06T00:13:12.250Z,6.10
2022-10-06T00:15:39.144Z,6.10
2022-10-06T00:18:06.032Z,6.12
2022-10-06T00:20:32.854Z,6.12
2022-10-06T00:22:59.415Z,6.11
2022-10-06T00:25:28.342Z,6.10
2022-10-06T00:27:56.203Z,6.04
2022-10-06T00:30:25.421Z,6.01
2022-10-06T00:32:54.371Z,5.98
2022-10-06T00:35:21.809Z,5.91
2022-10-06T00:37:48.519Z,5.91
2022-10-06T00:40:15.776Z,5.94
2022-10-06T00:43:00.754Z,5.93
2022-10-06T00:45:39.199Z,5.86
2022-10-06T00:48:14.280Z,5.84
2022-10-06T00:50:42.843Z,5.82
2022-10-06T00:53:10.286Z,5.84
2022-10-06T00:55:36.931Z,5.86
2022-10-06T00:58:05.062Z,5.84
2022-10-06T01:00:32.650Z,5.82
2022-10-06T01:03:24.618Z,5.82
2022-10-06T01:05:52.723Z,5.81
2022-10-06T01:08:21.563Z,5.80
2022-10-06T01:10:48.952Z,5.79
2022-10-06T01:13:18.426Z,5.80
2022-10-06T01:15:59.717Z,5.80
2022-10-06T01:18:29.587Z,5.81
2022-10-06T01:21:19.103Z,5.81
2022-10-06T01:23:46.225Z,5.80
2022-10-06T01:26:14.692Z,5.80
2022-10-06T01:28:41.494Z,5.80
2022-10-06T01:31:09.619Z,5.82
2022-10-06T01:33:36.323Z,5.84
2022-10-06T01:36:04.294Z,5.86
2022-10-06T01:38:31.470Z,5.87
2022-10-06T01:40:58.820Z,5.86
2022-10-06T01:43:25.737Z,5.85
2022-10-06T01:45:56.588Z,5.85
2022-10-06T01:48:23.980Z,5.86
2022-10-06T01:50:51.124Z,5.84
2022-10-06T01:53:18.810Z,5.79
2022-10-06T01:55:46.487Z,5.75
2022-10-06T01:58:13.686Z,5.77
2022-10-06T02:00:40.694Z,5.76
2022-10-06T02:03:08.080Z,5.74
2022-10-06T02:05:35.084Z,5.74
2022-10-06T02:08:02.747Z,5.74
2022-10-06T02:10:29.715Z,5.72
2022-10-06T02:12:57.431Z,5.72
2022-10-06T02:15:25.141Z,5.67
2022-10-06T02:17:51.692Z,5.63
2022-10-06T02:20:18.498Z,5.60
2022-10-06T02:22:45.073Z,5.56
2022-10-06T02:25:12.367Z,5.54
2022-10-06T02:27:39.706Z,5.47
2022-10-06T02:30:08.046Z,5.44
2022-10-06T02:32:40.499Z,5.42
2022-10-06T02:35:07.548Z,5.38
2022-10-06T02:37:34.389Z,5.35
2022-10-06T02:40:01.291Z,5.32
2022-10-06T02:42:28.293Z,5.29
2022-10-06T02:44:54.871Z,5.28
2022-10-06T02:47:22.629Z,5.27
2022-10-06T02:49:49.356Z,5.25
2022-10-06T02:52:15.918Z,5.23
2022-10-06T02:54:42.830Z,5.15
2022-10-06T02:57:09.646Z,5.12
2022-10-06T02:59:36.611Z,5.11
2022-10-06T03:02:03.613Z,5.09
2022-10-06T03:04:30.784Z,5.06
2022-10-06T03:06:57.926Z,5.03
2022-10-06T03:09:25.409Z,5.01
2022-10-06T03:11:52.154Z,5.00
2022-10-06T03:14:21.937Z,4.99
2022-10-06T03:16:50.429Z,4.93
2022-10-06T03:19:17.134Z,4.95
2022-10-06T03:21:44.293Z,4.89
2022-10-06T03:24:11.659Z,4.86
2022-10-06T03:26:41.396Z,4.83
2022-10-06T03:29:11.492Z,4.79
2022-10-06T03:31:39.391Z,4.73
2022-10-06T03:34:06.242Z,4.69
2022-10-06T03:36:34.178Z,4.69
2022-10-06T03:39:02.799Z,4.67
2022-10-06T03:41:33.794Z,4.69
2022-10-06T03:44:00.982Z,4.66
2022-10-06T03:46:29.946Z,4.65
2022-10-06T03:48:57.470Z,4.65
2022-10-06T03:51:31.624Z,4.68
2022-10-06T03:53:58.986Z,4.64
2022-10-06T03:56:25.539Z,4.67
2022-10-06T03:58:57.387Z,4.68
2022-10-06T04:01:48.191Z,4.66
2022-10-06T04:04:15.080Z,4.63
2022-10-06T04:06:43.963Z,4.60
2022-10-06T04:09:15.628Z,4.60
2022-10-06T04:11:44.312Z,4.63
2022-10-06T04:14:13.793Z,4.64
2022-10-06T04:16:46.519Z,4.65
2022-10-06T04:19:14.233Z,4.65
2022-10-06T04:21:44.283Z,4.64
2022-10-06T04:24:11.933Z,4.66
2022-10-06T04:26:41.978Z,4.64
2022-10-06T04:29:08.616Z,4.62
2022-10-06T04:31:39.083Z,4.65
2022-10-06T04:34:07.226Z,4.67
2022-10-06T04:36:38.202Z,4.69
2022-10-06T04:39:06.127Z,4.69
2022-10-06T04:41:37.986Z,4.70
2022-10-06T04:44:05.692Z,4.68
2022-10-06T04:46:43.902Z,4.68
2022-10-06T04:49:18.585Z,4.67
2022-10-06T04:51:46.073Z,4.69
2022-10-06T04:54:13.026Z,4.70
2022-10-06T04:56:39.674Z,4.71
2022-10-06T04:59:06.244Z,4.70
2022-10-06T05:01:35.609Z,4.76
2022-10-06T05:04:03.537Z,4.76
2022-10-06T05:06:32.249Z,4.75
2022-10-06T05:09:00.981Z,4.78
2022-10-06T05:11:28.042Z,4.81
2022-10-06T05:13:56.758Z,4.84
2022-10-06T05:16:25.761Z,4.89
2022-10-06T05:18:52.702Z,4.94
2022-10-06T05:21:22.788Z,4.96
2022-10-06T05:23:49.652Z,5.02
2022-10-06T05:26:19.018Z,5.06
2022-10-06T05:28:45.870Z,5.09
2022-10-06T05:31:18.252Z,5.12
2022-10-06T05:33:45.317Z,5.18
2022-10-06T05:36:17.486Z,5.24
2022-10-06T05:38:45.385Z,5.26
2022-10-06T05:41:21.308Z,5.28
2022-10-06T05:43:48.476Z,5.29
2022-10-06T05:46:25.194Z,5.32
2022-10-06T05:48:56.923Z,5.35
2022-10-06T05:51:30.673Z,5.36
2022-10-06T05:53:57.702Z,5.36
2022-10-06T05:56:32.755Z,5.41
2022-10-06T05:59:00.536Z,5.44
2022-10-06T06:01:29.568Z,5.48
2022-10-06T06:04:01.572Z,5.52
2022-10-06T06:06:29.290Z,5.58
2022-10-06T06:09:01.324Z,5.64
2022-10-06T06:11:31.494Z,5.68
2022-10-06T06:13:59.509Z,5.75
2022-10-06T06:16:27.482Z,5.82
2022-10-06T06:18:55.174Z,5.90
2022-10-06T06:21:21.820Z,5.97
2022-10-06T06:23:50.223Z,6.04
2022-10-06T06:26:18.131Z,6.11
2022-10-06T06:28:47.678Z,6.17
2022-10-06T06:31:23.504Z,6.21
2022-10-06T06:33:56.455Z,6.29
2022-10-06T06:36:26.697Z,6.37
2022-10-06T06:38:55.558Z,6.42
2022-10-06T06:41:23.727Z,6.48
2022-10-06T06:43:53.028Z,6.55
2022-10-06T06:46:25.013Z,6.62
2022-10-06T06:48:53.057Z,6.69
2022-10-06T06:51:23.134Z,6.78
2022-10-06T06:53:50.872Z,6.87
2022-10-06T06:56:17.933Z,6.97
2022-10-06T06:58:49.114Z,7.08
2022-10-06T07:01:20.189Z,7.20
2022-10-06T07:03:58.111Z,7.33
2022-10-06T07:06:28.991Z,7.47
2022-10-06T07:08:58.050Z,7.62
2022-10-06T07:11:30.249Z,7.74
2022-10-06T07:14:01.300Z,7.89
2022-10-06T07:16:48.695Z,8.07
2022-10-06T07:19:35.738Z,8.25
2022-10-06T07:22:30.394Z,8.45
2022-10-06T07:25:07.844Z,8.66
2022-10-06T07:27:42.494Z,8.87
2022-10-06T07:30:18.916Z,9.06
2022-10-06T07:32:47.257Z,9.24
2022-10-06T07:35:15.552Z,9.41
2022-10-06T07:37:43.228Z,9.60
2022-10-06T07:40:10.770Z,9.80
2022-10-06T07:42:48.436Z,9.99
2022-10-06T07:45:35.919Z,10.21
2022-10-06T07:48:03.724Z,10.41
2022-10-06T07:50:30.752Z,10.58
2022-10-06T07:52:57.386Z,10.70
2022-10-06T07:55:24.149Z,10.87
2022-10-06T07:57:51.362Z,11.02
2022-10-06T08:00:22.566Z,11.13
2022-10-06T08:02:49.605Z,11.25
2022-10-06T08:05:16.416Z,11.34
2022-10-06T08:07:43.040Z,11.46
2022-10-06T08:10:10.167Z,11.61
2022-10-06T08:12:37.951Z,11.71
2022-10-06T08:15:07.786Z,11.88
2022-10-06T08:17:38.447Z,12.07
2022-10-06T08:20:10.450Z,12.24
2022-10-06T08:22:38.870Z,12.37
2022-10-06T08:25:07.843Z,12.55
2022-10-06T08:27:35.923Z,12.80
2022-10-06T08:30:04.778Z,13.01
2022-10-06T08:32:32.941Z,13.17
2022-10-06T08:34:59.633Z,13.37
2022-10-06T08:37:27.417Z,13.63
2022-10-06T08:39:55.744Z,13.92
2022-10-06T08:42:33.912Z,14.21
2022-10-06T08:45:04.199Z,14.48
2022-10-06T08:47:35.450Z,14.67
2022-10-06T08:50:05.348Z,14.87
2022-10-06T08:52:47.196Z,15.04
2022-10-06T08:55:22.750Z,15.21
2022-10-06T08:57:55.490Z,15.31
2022-10-06T09:00:22.867Z,15.41
2022-10-06T09:02:50.686Z,15.54
2022-10-06T09:05:25.192Z,15.64
2022-10-06T09:08:16.851Z,15.70
2022-10-06T09:11:01.940Z,15.74
2022-10-06T09:13:34.277Z,15.73
2022-10-06T09:16:09.478Z,15.78
2022-10-06T09:21:42.251Z,15.85
2022-10-06T09:24:26.466Z,15.95
2022-10-06T09:26:53.555Z,16.05
2022-10-06T09:29:20.288Z,16.14
2022-10-06T09:31:51.364Z,16.19
2022-10-06T09:34:51.867Z,16.26
2022-10-06T09:37:19.689Z,16.37
2022-10-06T09:39:50.327Z,16.43
2022-10-06T09:42:24.373Z,16.50
2022-10-06T09:44:58.534Z,16.56
2022-10-06T09:47:39.064Z,16.48
2022-10-06T09:50:17.715Z,16.51
2022-10-06T09:53:06.090Z,16.66
2022-10-06T09:55:44.730Z,16.69
2022-10-06T09:58:25.021Z,16.69
2022-10-06T10:00:58.079Z,16.65
2022-10-06T10:03:26.546Z,16.64
2022-10-06T10:05:55.271Z,16.69
2022-10-06T10:08:30.988Z,16.72
2022-10-06T10:11:31.537Z,16.77
2022-10-06T10:13:59.533Z,16.92
2022-10-06T10:16:34.770Z,17.04
2022-10-06T10:19:05.949Z,17.13
2022-10-06T10:21:35.075Z,17.19
2022-10-06T10:24:06.814Z,17.22
2022-10-06T10:26:53.786Z,17.34
2022-10-06T10:29:49.606Z,17.42
2022-10-06T10:32:19.875Z,17.50
2022-10-06T10:34:59.351Z,17.50
2022-10-06T10:37:38.268Z,17.46
2022-10-06T10:40:15.169Z,17.52
2022-10-06T10:42:51.412Z,17.57
2022-10-06T10:45:25.379Z,17.69
2022-10-06T10:47:53.581Z,17.81
2022-10-06T10:50:25.758Z,17.99
2022-10-06T10:52:58.455Z,18.07
2022-10-06T10:55:34.359Z,18.09
2022-10-06T10:58:30.029Z,18.12
2022-10-06T11:01:33.840Z,18.07
2022-10-06T11:04:01.013Z,18.12
2022-10-06T11:06:53.907Z,18.12
2022-10-06T11:09:54.245Z,18.16
2022-10-06T11:13:18.074Z,18.24
2022-10-06T11:15:57.617Z,18.30
2022-10-06T11:18:41.395Z,18.34
2022-10-06T11:21:38.079Z,18.46
2022-10-06T11:24:19.825Z,18.56
2022-10-06T11:27:18.600Z,18.71
2022-10-06T11:29:59.038Z,18.80
2022-10-06T11:32:28.853Z,18.81
2022-10-06T11:34:56.055Z,18.73
2022-10-06T11:37:37.834Z,18.70
2022-10-06T11:41:01.157Z,18.71
2022-10-06T11:43:46.480Z,18.80
2022-10-06T11:46:13.091Z,18.89
2022-10-06T11:48:40.625Z,19.01
2022-10-06T11:51:25.706Z,19.11
2022-10-06T11:53:53.041Z,19.13
2022-10-06T11:56:19.540Z,19.23
2022-10-06T11:59:09.709Z,19.27
2022-10-06T12:01:36.480Z,19.24
2022-10-06T12:04:08.879Z,19.16
2022-10-06T12:06:44.689Z,19.18
2022-10-06T12:09:31.166Z,19.25
2022-10-06T12:12:21.985Z,19.23
2022-10-06T12:17:08.640Z,19.09
2022-10-06T12:18:07.561Z,18.95
2022-10-06T12:20:42.418Z,18.94
2022-10-06T12:23:09.267Z,19.02
2022-10-06T12:25:55.267Z,18.98
2022-10-06T12:28:38.780Z,18.90
2022-10-06T12:31:23.956Z,18.99
2022-10-06T12:33:50.924Z,19.12
2022-10-06T12:36:25.887Z,19.14
2022-10-06T12:39:02.287Z,19.18
2022-10-06T12:41:58.619Z,19.15
2022-10-06T12:44:31.187Z,19.12
2022-10-06T12:47:04.064Z,19.22
2022-10-06T12:49:49.633Z,19.27
2022-10-06T12:52:27.254Z,19.34
2022-10-06T12:55:16.429Z,19.22
2022-10-06T12:57:48.009Z,19.15
2022-10-06T13:00:30.656Z,19.12
2022-10-06T13:02:58.497Z,19.14
2022-10-06T13:05:25.629Z,19.22
2022-10-06T13:08:23.006Z,19.30
2022-10-06T13:10:49.928Z,19.28
2022-10-06T13:13:24.850Z,19.32
2022-10-06T13:15:56.106Z,19.14
2022-10-06T13:18:23.404Z,19.00
2022-10-06T13:20:52.812Z,18.94
2022-10-06T13:23:37.913Z,18.97
2022-10-06T13:26:05.663Z,19.01
2022-10-06T13:28:46.196Z,19.08
2022-10-06T13:31:27.337Z,19.10
2022-10-06T13:34:01.532Z,19.13
2022-10-06T13:36:29.318Z,19.12
2022-10-06T13:38:56.614Z,19.12
2022-10-06T13:41:28.921Z,19.13
2022-10-06T13:44:22.669Z,19.15
2022-10-06T13:46:53.215Z,19.18
2022-10-06T13:49:29.983Z,19.11
2022-10-06T13:52:01.067Z,19.05
2022-10-06T13:54:50.337Z,18.98
2022-10-06T13:57:44.110Z,18.90
2022-10-06T14:00:21.466Z,18.85
2022-10-06T14:03:09.902Z,18.82
2022-10-06T14:05:39.363Z,18.74
2022-10-06T14:08:11.941Z,18.68
2022-10-06T16:17:39.100Z,11.93
2022-10-06T16:20:06.146Z,12.19
2022-10-06T16:22:32.753Z,12.43
2022-10-06T16:24:59.584Z,12.55
2022-10-06T16:27:29.027Z,12.68
2022-10-06T16:30:02.250Z,12.76
2022-10-06T16:32:28.837Z,12.76
2022-10-06T16:34:55.495Z,12.73
2022-10-06T16:37:22.201Z,12.67
2022-10-06T16:39:48.839Z,12.62
2022-10-06T16:42:15.432Z,12.57
2022-10-06T16:44:42.059Z,12.53
2022-10-06T16:47:08.717Z,12.47
2022-10-06T16:49:35.321Z,12.43
2022-10-06T16:52:02.449Z,12.36
2022-10-06T16:54:29.054Z,12.31
2022-10-06T16:56:57.476Z,12.29
2022-10-06T16:59:27.465Z,12.22
2022-10-06T17:01:54.070Z,12.11
2022-10-06T17:04:23.287Z,12.05
2022-10-06T17:06:55.200Z,11.99
2022-10-06T17:09:24.346Z,11.94
2022-10-06T17:11:53.994Z,11.84
2022-10-06T17:14:21.830Z,11.76
2022-10-06T17:16:51.229Z,11.70
2022-10-06T17:19:19.533Z,11.66
2022-10-06T17:21:48.732Z,11.61
2022-10-06T17:24:18.855Z,11.58
2022-10-06T17:26:47.979Z,11.51
2022-10-06T17:29:21.435Z,11.47
2022-10-06T17:31:50.650Z,11.40
2022-10-06T17:34:21.900Z,11.31
2022-10-06T17:36:51.600Z,11.21
2022-10-06T17:39:21.250Z,11.15
2022-10-06T17:41:50.321Z,11.08
2022-10-06T17:44:23.444Z,11.04
2022-10-06T17:46:53.046Z,11.01
2022-10-06T17:49:21.352Z,10.99
2022-10-06T17:51:49.240Z,10.92
2022-10-06T17:54:19.906Z,10.86
2022-10-06T17:56:48.632Z,10.82
2022-10-06T17:59:22.357Z,10.77
2022-10-06T18:01:51.473Z,10.73
2022-10-06T18:04:19.296Z,10.66
2022-10-06T18:06:47.555Z,10.63
2022-10-06T18:09:15.211Z,10.56
2022-10-06T18:11:44.037Z,10.45
2022-10-06T18:14:12.993Z,10.47
2022-10-06T18:16:41.009Z,10.40
2022-10-06T18:19:30.289Z,10.32
2022-10-06T18:22:00.569Z,10.26
2022-10-06T18:24:29.891Z,10.17
2022-10-06T18:26:59.255Z,10.08
2022-10-06T18:29:30.285Z,10.03
2022-10-06T18:32:05.125Z,9.98
2022-10-06T18:37:30.559Z,9.86
2022-10-06T18:39:57.274Z,9.83
2022-10-06T18:42:24.180Z,9.83
2022-10-06T18:45:09.107Z,9.77
2022-10-06T18:47:54.225Z,9.70
2022-10-06T18:50:20.883Z,9.71
2022-10-06T18:52:47.490Z,9.66
2022-10-06T18:55:14.223Z,9.65
2022-10-06T18:57:41.453Z,9.63
2022-10-06T19:00:10.585Z,9.62
2022-10-06T19:02:37.273Z,9.62
2022-10-06T19:05:04.878Z,9.60
2022-10-06T19:07:31.798Z,9.57
2022-10-06T19:09:59.113Z,9.51
2022-10-06T19:12:25.801Z,9.48
2022-10-06T19:14:52.530Z,9.45
2022-10-06T19:17:22.788Z,9.41
2022-10-06T19:19:51.645Z,9.37
2022-10-06T19:22:21.668Z,9.34
2022-10-06T19:24:48.749Z,9.30
2022-10-06T19:27:20.928Z,9.27
2022-10-06T19:29:54.552Z,9.19
2022-10-06T19:32:28.143Z,9.14
2022-10-06T19:34:59.098Z,9.09
2022-10-06T19:37:29.259Z,9.07
2022-10-06T19:39:56.091Z,9.03
2022-10-06T19:42:41.302Z,8.99
2022-10-06T19:45:09.232Z,8.99
2022-10-06T19:47:35.946Z,8.98
2022-10-06T19:50:08.710Z,8.95
2022-10-06T19:52:38.334Z,8.94
2022-10-06T19:55:05.555Z,8.93
2022-10-06T19:57:33.700Z,8.93
2022-10-06T20:00:00.857Z,8.92
2022-10-06T20:02:29.213Z,8.89
2022-10-06T20:04:56.370Z,8.87
2022-10-06T20:07:27.305Z,8.84
2022-10-06T20:09:54.219Z,8.82
2022-10-06T20:12:24.598Z,8.79
2022-10-06T20:14:53.656Z,8.77
2022-10-06T20:17:21.466Z,8.76
2022-10-06T20:19:48.216Z,8.74
2022-10-06T20:22:16.090Z,8.73
2022-10-06T20:24:42.914Z,8.67
2022-10-06T20:27:10.240Z,8.64
2022-10-06T20:29:36.895Z,8.61
2022-10-06T20:32:05.473Z,8.60
2022-10-06T20:34:32.988Z,8.59
2022-10-06T20:37:02.625Z,8.54
2022-10-06T20:39:52.423Z,8.51
2022-10-06T20:42:20.752Z,8.48
2022-10-06T20:44:47.833Z,8.43
2022-10-06T20:47:16.700Z,8.40
2022-10-06T20:49:44.491Z,8.35
2022-10-06T20:52:14.601Z,8.37
2022-10-06T20:54:41.951Z,8.32
2022-10-06T20:57:09.768Z,8.29
2022-10-06T20:59:37.652Z,8.23
2022-10-06T21:02:05.898Z,8.19
2022-10-06T21:04:33.816Z,8.17
2022-10-06T21:07:01.726Z,8.16
2022-10-06T21:09:29.392Z,8.15
2022-10-06T21:11:57.528Z,8.13
2022-10-06T21:14:24.514Z,8.14
2022-10-06T21:16:51.262Z,8.14
2022-10-06T21:19:19.547Z,8.12
2022-10-06T21:21:52.280Z,8.14
2022-10-06T21:24:19.657Z,8.11
2022-10-06T21:26:46.308Z,8.05
2022-10-06T21:29:15.624Z,8.02
2022-10-06T21:31:43.383Z,8.03
2022-10-06T21:34:10.643Z,7.98
2022-10-06T21:36:37.622Z,7.96
2022-10-06T21:39:06.049Z,7.93
2022-10-06T21:41:35.493Z,7.91
2022-10-06T21:44:03.771Z,7.90
2022-10-06T21:46:39.037Z,7.86
2022-10-06T21:49:09.057Z,7.82
2022-10-06T21:51:36.334Z,7.78
2022-10-06T21:54:03.354Z,7.75
2022-10-06T21:56:32.130Z,7.75
2022-10-06T21:59:00.025Z,7.74
2022-10-06T22:01:29.838Z,7.68
2022-10-06T22:03:57.960Z,7.64
2022-10-06T22:06:24.768Z,7.64
2022-10-06T22:08:51.427Z,7.62
2022-10-06T22:11:23.411Z,7.64
2022-10-06T22:13:54.025Z,7.62
2022-10-06T22:16:22.805Z,7.66
2022-10-06T22:18:50.156Z,7.65
2022-10-06T22:21:22.460Z,7.63
2022-10-06T22:24:03.957Z,7.61
2022-10-06T22:26:32.823Z,7.60
2022-10-06T22:29:00.481Z,7.59
2022-10-06T22:31:28.159Z,7.59
2022-10-06T22:33:56.685Z,7.58
2022-10-06T22:36:24.282Z,7.56
2022-10-06T22:38:50.909Z,7.53
2022-10-06T22:41:18.523Z,7.55
2022-10-06T22:43:45.362Z,7.55
2022-10-06T22:46:12.815Z,7.51
2022-10-06T22:48:39.947Z,7.50
2022-10-06T22:51:06.594Z,7.50
